Terminal Aerodrome Forecast
Issued by NWS Austin/San Antonio, TX

Home | Current Version | Previous Version | Text Only | Print | Product List | Glossary On
Versions: 1 2 3 4 5 6 7 8 9 10 11 12 13 14 15 16 17
000
FTUS44 KEWX 291100 RRA
TAFAUS
TAF
KAUS 291142Z 2912/3018 00000KT P6SM SKC
     FM291800 21005KT P6SM FEW250
     FM301300 02010KT P6SM BKN015=

USA.gov is the U.S. government's official web portal to all federal, state and local government web resources and services.